Time;durP1;ratioP1;P1;durP2;ratioP2;P2;SDS_P1;SDS_P2;PMS_P1;PMS_P2;Temp;Humidity;BMP_temperature;BMP_pressure;BME280_temperature;BME280_humidity;BME280_pressure;Samples;Min_cycle;Max_cycle;Signal;HPM_P1;HPM_P2
2023/08/13 00:02:44;;;;;;;;;;;;;;;20.46;62.71;99849.66;10365543;28;977;-71
2023/08/13 00:07:40;;;;;;;;;;;;;;;20.46;62.71;99861.16;10372886;28;769;-71
2023/08/13 00:12:36;;;;;;;;;;;;;;;20.45;62.59;99862.06;10373373;28;1906;-71
2023/08/13 00:17:32;;;;;;;;;;;;;;;20.45;62.79;99870.00;10373283;28;803;-71
2023/08/13 00:22:27;;;;;;;;;;;;;;;20.44;62.60;99865.66;10373497;28;827;-71
2023/08/13 00:27:23;;;;;;;;;;;;;;;20.44;62.70;99862.16;10372706;28;1004;-71
2023/08/13 00:32:19;;;;;;;;;;;;;;;20.44;62.75;99864.81;10372456;28;1893;-71
2023/08/13 00:37:16;;;;;;;;;;;;;;;20.43;62.75;99865.72;10372272;28;980;-71
2023/08/13 00:42:12;;;;;;;;;;;;;;;20.43;62.81;99871.03;10371566;28;1358;-71
2023/08/13 00:47:08;;;;;;;;;;;;;;;20.42;62.69;99886.06;10372487;28;902;-70
2023/08/13 00:52:04;;;;;;;;;;;;;;;20.42;62.58;99877.25;10371754;28;1909;-71
2023/08/13 00:57:00;;;;;;;;;;;;;;;20.42;62.63;99887.84;10371551;28;934;-71
2023/08/13 01:01:56;;;;;;;;;;;;;;;20.40;62.74;99881.78;10371339;28;878;-71
2023/08/13 01:06:52;;;;;;;;;;;;;;;20.39;62.72;99878.28;10371072;28;918;-70
2023/08/13 01:11:48;;;;;;;;;;;;;;;20.39;62.67;99886.22;10371853;28;1955;-71
2023/08/13 01:16:44;;;;;;;;;;;;;;;20.39;62.77;99894.16;10370380;28;953;-71
2023/08/13 01:21:40;;;;;;;;;;;;;;;20.38;62.71;99889.78;10370600;28;954;-71
2023/08/13 01:26:36;;;;;;;;;;;;;;;20.38;62.57;99899.53;10370396;28;865;-71
2023/08/13 01:31:32;;;;;;;;;;;;;;;20.38;62.70;99891.59;10370752;28;1897;-71
2023/08/13 01:36:28;;;;;;;;;;;;;;;20.36;62.78;99895.19;10370006;28;890;-71
2023/08/13 01:41:23;;;;;;;;;;;;;;;20.36;62.65;99887.22;10370062;28;1462;-71
2023/08/13 01:46:19;;;;;;;;;;;;;;;20.36;62.77;99897.81;10369513;28;935;-71
2023/08/13 01:51:15;;;;;;;;;;;;;;;20.36;62.68;99904.91;10369402;28;1910;-71
2023/08/13 01:56:11;;;;;;;;;;;;;;;20.35;62.60;99905.84;10369506;28;961;-71
2023/08/13 02:01:07;;;;;;;;;;;;;;;20.35;62.63;99908.47;10369679;28;952;-71
2023/08/13 02:06:03;;;;;;;;;;;;;;;20.34;62.62;99902.34;10369510;28;853;-71
2023/08/13 02:10:59;;;;;;;;;;;;;;;20.33;62.71;99898.00;10368610;28;1906;-71
2023/08/13 02:15:55;;;;;;;;;;;;;;;20.34;62.67;99897.03;10369071;28;834;-70
2023/08/13 02:20:50;;;;;;;;;;;;;;;20.33;62.72;99900.63;10369372;28;850;-71
2023/08/13 02:25:46;;;;;;;;;;;;;;;20.33;62.60;99892.69;10367703;28;806;-71
2023/08/13 02:30:42;;;;;;;;;;;;;;;20.32;62.62;99890.97;10368100;28;1885;-71
2023/08/13 02:35:38;;;;;;;;;;;;;;;20.32;62.54;99896.25;10368571;28;878;-71
2023/08/13 02:40:34;;;;;;;;;;;;;;;20.32;62.59;99888.31;10367647;28;1144;-71
2023/08/13 02:45:30;;;;;;;;;;;;;;;20.31;62.75;99899.84;10367393;28;748;-70
2023/08/13 02:50:26;;;;;;;;;;;;;;;20.31;62.67;99891.06;10367157;28;1914;-71
2023/08/13 02:55:22;;;;;;;;;;;;;;;20.30;62.70;99892.84;10367060;28;883;-71
2023/08/13 03:00:17;;;;;;;;;;;;;;;20.30;62.68;99891.97;10366353;28;854;-71
2023/08/13 03:05:13;;;;;;;;;;;;;;;20.29;62.78;99887.63;10366735;28;815;-71
2023/08/13 03:10:09;;;;;;;;;;;;;;;20.28;62.69;99894.72;10366554;28;1898;-71
2023/08/13 03:15:05;;;;;;;;;;;;;;;20.28;62.60;99896.50;10367730;28;802;-71
2023/08/13 03:20:01;;;;;;;;;;;;;;;20.28;62.50;99899.16;10366384;28;787;-71
2023/08/13 03:24:57;;;;;;;;;;;;;;;20.26;62.61;99888.63;10366495;28;933;-71
2023/08/13 03:29:53;;;;;;;;;;;;;;;20.27;62.61;99892.97;10366285;28;1941;-71
2023/08/13 03:34:48;;;;;;;;;;;;;;;20.26;62.51;99890.44;10366053;28;967;-71
2023/08/13 03:39:44;;;;;;;;;;;;;;;20.26;62.60;99890.44;10370545;28;1258;-71
2023/08/13 03:44:40;;;;;;;;;;;;;;;20.24;62.61;99885.22;10375016;28;790;-71
2023/08/13 03:49:36;;;;;;;;;;;;;;;20.23;62.60;99878.22;10374868;28;1910;-71
2023/08/13 03:54:32;;;;;;;;;;;;;;;20.24;62.73;99887.84;10374604;28;933;-71
2023/08/13 03:59:28;;;;;;;;;;;;;;;20.24;62.47;99894.94;10373292;28;1369;-71
2023/08/13 04:04:24;;;;;;;;;;;;;;;20.23;62.70;99893.25;10373708;28;882;-71
2023/08/13 04:09:19;;;;;;;;;;;;;;;20.22;62.48;99895.00;10372820;28;1894;-71
2023/08/13 04:14:15;;;;;;;;;;;;;;;20.22;62.42;99904.75;10374504;28;919;-71
2023/08/13 04:19:11;;;;;;;;;;;;;;;20.21;62.53;99905.69;10372492;28;937;-71
2023/08/13 04:24:07;;;;;;;;;;;;;;;20.22;62.50;99908.25;10372291;28;851;-71
2023/08/13 04:29:03;;;;;;;;;;;;;;;20.20;62.51;99904.84;10372648;28;1894;-70
2023/08/13 04:33:59;;;;;;;;;;;;;;;20.20;62.53;99896.91;10373134;28;850;-70
2023/08/13 04:38:55;;;;;;;;;;;;;;;20.21;62.52;99911.00;10372252;28;1167;-69
2023/08/13 04:43:50;;;;;;;;;;;;;;;20.21;62.17;99908.34;10371564;28;976;-69
2023/08/13 04:48:46;;;;;;;;;;;;;;;20.21;62.24;99906.53;10371594;28;1910;-69
2023/08/13 04:53:42;;;;;;;;;;;;;;;20.21;62.24;99905.69;10370708;28;851;-69
2023/08/13 04:58:38;;;;;;;;;;;;;;;20.20;62.30;99909.25;10371554;28;799;-68
2023/08/13 05:03:34;;;;;;;;;;;;;;;20.21;62.17;99908.34;10370734;28;874;-69
2023/08/13 05:08:30;;;;;;;;;;;;;;;20.21;62.18;99911.00;10371325;28;1953;-69
2023/08/13 05:13:26;;;;;;;;;;;;;;;20.20;62.36;99904.84;10371816;28;814;-69
2023/08/13 05:18:22;;;;;;;;;;;;;;;20.20;62.35;99915.44;10371560;28;806;-69
2023/08/13 05:23:18;;;;;;;;;;;;;;;20.21;62.24;99913.63;10371201;28;819;-69
2023/08/13 05:28:13;;;;;;;;;;;;;;;20.19;62.31;99911.06;10370929;28;1953;-69
2023/08/13 05:33:09;;;;;;;;;;;;;;;20.19;62.30;99911.06;10370441;28;830;-69
2023/08/13 05:38:05;;;;;;;;;;;;;;;20.17;62.39;99915.56;10370087;28;1100;-70
2023/08/13 05:43:02;;;;;;;;;;;;;;;20.18;62.38;99921.72;10370364;28;1089;-69
2023/08/13 05:47:57;;;;;;;;;;;;;;;20.17;62.38;99923.50;10369611;28;829;-69
2023/08/13 05:52:53;;;;;;;;;;;;;;;20.17;62.18;99923.50;10369388;28;1902;-69
2023/08/13 05:57:49;;;;;;;;;;;;;;;20.18;62.22;99927.88;10369756;28;858;-69
2023/08/13 06:02:45;;;;;;;;;;;;;;;20.18;62.20;99919.94;10368596;28;973;-69
2023/08/13 06:07:41;;;;;;;;;;;;;;;20.16;62.20;99919.16;10368791;28;890;-69
2023/08/13 06:12:37;;;;;;;;;;;;;;;20.16;62.29;99916.50;10368707;28;1885;-71
2023/08/13 06:17:33;;;;;;;;;;;;;;;20.17;62.25;99923.50;10367934;28;938;-69
2023/08/13 06:22:29;;;;;;;;;;;;;;;20.19;62.39;99934.03;10368221;28;847;-69
2023/08/13 06:27:25;;;;;;;;;;;;;;;20.19;62.22;99934.03;10368115;28;830;-69
2023/08/13 06:32:21;;;;;;;;;;;;;;;20.19;62.32;99937.53;10365786;28;1894;-71
2023/08/13 06:37:16;;;;;;;;;;;;;;;20.19;62.29;99929.59;10367385;28;876;-71
2023/08/13 06:42:12;;;;;;;;;;;;;;;20.19;62.19;99934.88;10368004;28;1386;-70
2023/08/13 06:47:08;;;;;;;;;;;;;;;20.19;62.18;99940.16;10368225;28;957;-70
2023/08/13 06:52:04;;;;;;;;;;;;;;;20.19;62.19;99934.88;10366125;28;1969;-70
2023/08/13 06:57:00;;;;;;;;;;;;;;;20.20;62.39;99931.31;10367022;28;772;-71
2023/08/13 07:01:56;;;;;;;;;;;;;;;20.21;62.51;99922.44;10366316;28;895;-71
2023/08/13 07:06:52;;;;;;;;;;;;;;;20.21;62.42;99926.88;10366175;28;906;-70
2023/08/13 07:11:48;;;;;;;;;;;;;;;20.21;62.36;99911.84;10367089;28;1893;-71
2023/08/13 07:16:44;;;;;;;;;;;;;;;20.22;62.51;99915.34;10366130;28;866;-71
2023/08/13 07:21:40;;;;;;;;;;;;;;;20.22;62.53;99923.28;10366328;28;853;-69
2023/08/13 07:26:36;;;;;;;;;;;;;;;20.23;62.34;99919.72;10366150;28;1004;-71
2023/08/13 07:31:32;;;;;;;;;;;;;;;20.23;62.37;99925.84;10366357;28;1893;-70
2023/08/13 07:36:28;;;;;;;;;;;;;;;20.22;62.40;99921.47;10366782;28;843;-71
2023/08/13 07:41:24;;;;;;;;;;;;;;;20.21;62.34;99922.44;10366432;28;1956;-69
2023/08/13 07:46:19;;;;;;;;;;;;;;;20.21;62.41;99927.72;10365938;28;881;-70
2023/08/13 07:51:15;;;;;;;;;;;;;;;20.21;62.35;99925.06;10365804;28;1918;-70
2023/08/13 07:56:12;;;;;;;;;;;;;;;20.20;62.52;99926.03;10365723;28;953;-72
2023/08/13 08:01:08;;;;;;;;;;;;;;;20.20;62.26;99928.66;10366425;28;807;-72
2023/08/13 08:06:04;;;;;;;;;;;;;;;20.20;62.46;99926.03;10365536;28;977;-71
2023/08/13 08:11:00;;;;;;;;;;;;;;;20.21;62.18;99924.22;10365542;28;1894;-72
2023/08/13 08:15:56;;;;;;;;;;;;;;;20.21;62.34;99922.44;10365989;28;883;-72
2023/08/13 08:20:52;;;;;;;;;;;;;;;20.21;62.49;99922.44;10366105;28;1005;-72
2023/08/13 08:25:48;;;;;;;;;;;;;;;20.21;62.28;99927.72;10367784;28;770;-72
2023/08/13 08:30:44;;;;;;;;;;;;;;;20.20;62.36;99915.44;10373338;28;1893;-72
2023/08/13 08:35:40;;;;;;;;;;;;;;;20.22;62.16;99924.13;10373211;28;866;-72
2023/08/13 08:40:36;;;;;;;;;;;;;;;20.22;62.20;99924.13;10372700;28;1148;-72
2023/08/13 08:45:31;;;;;;;;;;;;;;;20.21;62.10;99917.13;10372863;28;949;-72
2023/08/13 08:50:27;;;;;;;;;;;;;;;20.22;62.26;99918.84;10372683;28;1917;-72
2023/08/13 08:55:23;;;;;;;;;;;;;;;20.24;62.13;99916.13;10372083;28;855;-72
2023/08/13 09:00:19;;;;;;;;;;;;;;;20.24;62.09;99902.88;10370896;28;847;-72
2023/08/13 09:05:15;;;;;;;;;;;;;;;20.24;62.15;99911.69;10371293;28;854;-72
2023/08/13 09:10:11;;;;;;;;;;;;;;;20.24;62.11;99900.25;10371245;28;1914;-71
2023/08/13 09:15:07;;;;;;;;;;;;;;;20.25;62.15;99901.94;10370380;28;977;-73
2023/08/13 09:20:03;;;;;;;;;;;;;;;20.25;62.03;99896.66;10370794;28;782;-73
2023/08/13 09:24:59;;;;;;;;;;;;;;;20.26;62.16;99896.59;10371013;28;807;-73
2023/08/13 09:29:55;;;;;;;;;;;;;;;20.26;62.10;99888.63;10370946;28;1953;-73
2023/08/13 09:34:53;;;;;;;;;;;;;;;20.27;62.04;99889.50;10367008;28;1033;-70
2023/08/13 09:39:49;;;;;;;;;;;;;;;20.28;62.02;99883.28;10384524;28;1277;-71
2023/08/13 09:44:45;;;;;;;;;;;;;;;20.29;62.05;99880.53;10410867;28;863;-78
2023/08/13 09:49:41;;;;;;;;;;;;;;;20.29;62.05;99877.88;10410858;28;1906;-70
2023/08/13 09:54:37;;;;;;;;;;;;;;;20.30;62.11;99868.16;10410927;28;815;-73
2023/08/13 09:59:36;;;;;;;;;;;;;;;20.31;62.09;99862.78;10410692;28;964;-73
2023/08/13 10:04:31;;;;;;;;;;;;;;;20.31;61.94;99865.44;10410902;28;862;-73
2023/08/13 10:09:27;;;;;;;;;;;;;;;20.32;62.01;99867.13;10410258;28;1898;-73
2023/08/13 10:14:23;;;;;;;;;;;;;;;20.29;62.05;99864.66;10410276;28;919;-73
2023/08/13 10:19:19;;;;;;;;;;;;;;;20.31;61.99;99864.59;10410109;28;834;-73
2023/08/13 10:24:15;;;;;;;;;;;;;;;20.30;62.09;99858.44;10409763;28;838;-73
2023/08/13 10:29:11;;;;;;;;;;;;;;;20.28;62.14;99857.66;10410686;28;1890;-73
2023/08/13 10:34:07;;;;;;;;;;;;;;;20.32;61.94;99853.91;10409386;28;752;-73
2023/08/13 10:39:03;;;;;;;;;;;;;;;20.29;62.08;99842.63;10408843;28;1448;-72
2023/08/13 10:43:58;;;;;;;;;;;;;;;20.28;62.21;99830.34;10410374;28;906;-74
2023/08/13 10:48:54;;;;;;;;;;;;;;;20.29;62.01;99838.19;10408103;28;1973;-72
2023/08/13 10:53:50;;;;;;;;;;;;;;;20.34;61.99;99827.34;10409198;28;788;-72
2023/08/13 10:58:46;;;;;;;;;;;;;;;20.34;61.99;99822.91;10409209;28;858;-72
2023/08/13 11:03:42;;;;;;;;;;;;;;;20.34;61.93;99828.22;10408312;28;906;-72
2023/08/13 11:08:40;;;;;;;;;;;;;;;20.34;62.03;99828.22;10408736;28;1901;-71
2023/08/13 11:13:36;;;;;;;;;;;;;;;20.31;62.11;99823.09;10408020;28;886;-71
2023/08/13 11:18:31;;;;;;;;;;;;;;;20.31;62.13;99823.09;10408419;28;900;-72
2023/08/13 11:23:27;;;;;;;;;;;;;;;20.30;62.11;99824.03;10407420;28;1640;-72
2023/08/13 11:28:23;;;;;;;;;;;;;;;20.29;62.17;99830.25;10407674;28;1901;-72
2023/08/13 11:33:19;;;;;;;;;;;;;;;20.29;62.24;99830.25;10407681;28;850;-72
2023/08/13 11:38:15;;;;;;;;;;;;;;;20.33;62.32;99823.88;10407728;28;1225;-72
2023/08/13 11:43:11;;;;;;;;;;;;;;;20.35;62.24;99811.38;10407412;28;941;-72
2023/08/13 11:48:07;;;;;;;;;;;;;;;20.36;62.22;99810.47;10407325;28;834;-72
2023/08/13 11:53:03;;;;;;;;;;;;;;;20.38;62.36;99807.72;10407830;28;1976;-72
2023/08/13 11:57:58;;;;;;;;;;;;;;;20.40;62.37;99805.00;10407804;28;857;-72
2023/08/13 12:02:55;;;;;;;;;;;;;;;20.40;62.53;99805.84;10415200;28;923;-72
2023/08/13 12:07:52;;;;;;;;;;;;;;;20.41;62.41;99804.06;10415111;28;948;-72
2023/08/13 12:12:48;;;;;;;;;;;;;;;20.40;62.48;99800.56;10414879;28;1889;-72
2023/08/13 12:17:43;;;;;;;;;;;;;;;20.41;62.56;99794.34;10414711;28;775;-72
2023/08/13 12:22:39;;;;;;;;;;;;;;;20.41;62.35;99785.50;10415009;28;935;-72
2023/08/13 12:27:35;;;;;;;;;;;;;;;20.42;62.38;99792.53;10414435;28;921;-71
2023/08/13 12:32:31;;;;;;;;;;;;;;;20.42;62.50;99801.34;10414203;28;1894;-72
2023/08/13 12:37:27;;;;;;;;;;;;;;;20.41;62.43;99798.75;10413894;28;984;-72
2023/08/13 12:42:23;;;;;;;;;;;;;;;20.40;62.37;99805.00;10413991;28;1417;-72
2023/08/13 12:47:19;;;;;;;;;;;;;;;20.41;62.36;99801.41;10413567;28;887;-72
2023/08/13 12:52:15;;;;;;;;;;;;;;;20.42;62.44;99801.34;10414221;28;1972;-72
2023/08/13 12:57:11;;;;;;;;;;;;;;;20.41;62.15;99797.00;10413212;28;811;-72
2023/08/13 13:02:06;;;;;;;;;;;;;;;20.43;62.14;99795.09;10413677;28;940;-72
2023/08/13 13:07:02;;;;;;;;;;;;;;;20.45;62.08;99789.72;10413026;28;918;-72
2023/08/13 13:11:58;;;;;;;;;;;;;;;20.44;62.08;99791.53;10412580;28;1956;-72
2023/08/13 13:16:54;;;;;;;;;;;;;;;20.47;61.96;99794.00;10411924;28;1012;-72
2023/08/13 13:21:50;;;;;;;;;;;;;;;20.49;61.94;99786.00;10412253;28;772;-72
2023/08/13 13:26:46;;;;;;;;;;;;;;;20.49;62.02;99792.13;10412833;28;838;-72
2023/08/13 13:31:42;;;;;;;;;;;;;;;20.49;61.81;99783.34;10411279;28;1894;-72
2023/08/13 13:36:38;;;;;;;;;;;;;;;20.50;61.80;99782.38;10411728;28;877;-72
2023/08/13 13:41:34;;;;;;;;;;;;;;;20.53;61.81;99779.56;10411833;28;1151;-72
2023/08/13 13:46:29;;;;;;;;;;;;;;;20.53;61.69;99777.78;10411340;28;781;-72
2023/08/13 13:51:25;;;;;;;;;;;;;;;20.55;61.61;99783.03;10411244;28;1971;-72
2023/08/13 13:56:21;;;;;;;;;;;;;;;20.58;61.64;99780.22;10411486;28;866;-72
2023/08/13 14:01:17;;;;;;;;;;;;;;;20.56;61.80;99774.13;10411250;28;793;-72
2023/08/13 14:06:13;;;;;;;;;;;;;;;20.61;61.44;99772.09;10409895;28;878;-72
2023/08/13 14:11:09;;;;;;;;;;;;;;;20.68;61.46;99772.63;10410253;28;1959;-71
2023/08/13 14:16:05;;;;;;;;;;;;;;;20.74;61.34;99766.97;10409541;28;933;-72
2023/08/13 14:21:01;;;;;;;;;;;;;;;20.75;61.14;99764.25;10409957;28;769;-72
2023/08/13 14:25:57;;;;;;;;;;;;;;;20.78;61.30;99764.09;10408798;28;862;-72
2023/08/13 14:30:53;;;;;;;;;;;;;;;20.71;61.39;99760.06;10409356;28;1889;-72
2023/08/13 14:35:49;;;;;;;;;;;;;;;20.67;61.36;99768.25;10408742;28;1068;-72
2023/08/13 14:40:45;;;;;;;;;;;;;;;20.63;61.54;99750.84;10408614;28;1537;-70
2023/08/13 14:45:40;;;;;;;;;;;;;;;20.77;61.24;99751.75;10409013;28;854;-70
2023/08/13 14:50:36;;;;;;;;;;;;;;;20.82;61.12;99748.00;10408757;28;1973;-69
2023/08/13 14:55:32;;;;;;;;;;;;;;;20.77;61.16;99746.47;10409237;28;847;-70
2023/08/13 15:00:28;;;;;;;;;;;;;;;20.94;60.81;99742.03;10408548;28;997;-70
2023/08/13 15:05:24;;;;;;;;;;;;;;;21.07;60.63;99751.00;10409225;28;864;-69
2023/08/13 15:10:20;;;;;;;;;;;;;;;21.24;60.18;99750.00;10408559;28;1960;-72
2023/08/13 15:15:16;;;;;;;;;;;;;;;21.36;59.81;99735.22;10408829;28;830;-71
2023/08/13 15:20:12;;;;;;;;;;;;;;;21.42;59.92;99742.84;10409224;28;889;-72
2023/08/13 15:25:09;;;;;;;;;;;;;;;21.19;60.44;99726.41;10408483;28;765;-72
2023/08/13 15:30:05;;;;;;;;;;;;;;;21.34;60.15;99719.38;10407680;28;2230;-72
2023/08/13 15:35:01;;;;;;;;;;;;;;;21.00;61.10;99725.78;10411348;28;1170;-72
2023/08/13 15:39:56;;;;;;;;;;;;;;;21.05;61.07;99723.72;10420679;28;1287;-72
2023/08/13 15:44:52;;;;;;;;;;;;;;;21.00;60.99;99721.31;10421467;28;1192;-72
2023/08/13 15:49:48;;;;;;;;;;;;;;;20.93;61.32;99719.09;10421616;28;1970;-71
2023/08/13 15:54:44;;;;;;;;;;;;;;;20.90;61.39;99714.00;10421249;28;830;-74
2023/08/13 15:59:40;;;;;;;;;;;;;;;20.89;61.31;99712.28;10421683;28;874;-74
2023/08/13 16:04:36;;;;;;;;;;;;;;;20.87;61.27;99698.28;10421585;28;924;-74
2023/08/13 16:09:32;;;;;;;;;;;;;;;20.86;61.31;99701.88;10421393;28;1902;-73
2023/08/13 16:14:28;;;;;;;;;;;;;;;20.84;61.26;99699.31;10421356;28;763;-75
2023/08/13 16:19:23;;;;;;;;;;;;;;;20.83;61.29;99697.59;10420710;28;878;-75
2023/08/13 16:24:19;;;;;;;;;;;;;;;20.84;61.16;99688.72;10420562;28;896;-70
2023/08/13 16:29:15;;;;;;;;;;;;;;;20.81;61.21;99688.03;10421183;28;1973;-71
2023/08/13 16:34:11;;;;;;;;;;;;;;;20.79;61.38;99691.59;10421045;28;803;-70
2023/08/13 16:39:08;;;;;;;;;;;;;;;20.79;61.30;99682.81;10420484;28;1168;-70
2023/08/13 16:44:03;;;;;;;;;;;;;;;20.81;61.43;99682.75;10420212;27;897;-70
2023/08/13 16:48:59;;;;;;;;;;;;;;;20.82;61.37;99684.44;10414043;28;1977;-71
2023/08/13 16:53:55;;;;;;;;;;;;;;;20.81;61.43;99682.75;10413436;28;841;-69
2023/08/13 16:58:51;;;;;;;;;;;;;;;20.79;61.53;99685.47;10413903;28;890;-70
2023/08/13 17:03:47;;;;;;;;;;;;;;;20.77;61.59;99680.25;10412470;28;955;-71
2023/08/13 17:08:43;;;;;;;;;;;;;;;20.76;61.69;99686.50;10412823;28;1893;-71
2023/08/13 17:13:39;;;;;;;;;;;;;;;20.76;61.62;99680.34;10413322;28;862;-70
2023/08/13 17:18:34;;;;;;;;;;;;;;;20.75;61.70;99678.63;10413303;28;881;-71
2023/08/13 17:23:30;;;;;;;;;;;;;;;20.74;61.67;99675.13;10411682;28;1149;-71
2023/08/13 17:28:26;;;;;;;;;;;;;;;20.74;61.82;99680.41;10412156;28;767;-70
2023/08/13 17:33:22;;;;;;;;;;;;;;;20.73;61.66;99678.72;10412541;28;1890;-70
2023/08/13 17:38:18;;;;;;;;;;;;;;;20.74;61.87;99677.78;10411490;28;1428;-71
2023/08/13 17:43:14;;;;;;;;;;;;;;;20.72;61.88;99677.03;10411526;28;771;-71
2023/08/13 17:48:11;;;;;;;;;;;;;;;20.73;61.86;99686.66;10411680;28;1066;-71
2023/08/13 17:53:09;;;;;;;;;;;;;;;20.72;61.79;99690.28;10411058;28;1980;-70
2023/08/13 17:58:05;;;;;;;;;;;;;;;20.73;61.73;99691.13;10410786;28;940;-70
2023/08/13 18:03:01;;;;;;;;;;;;;;;20.72;61.86;99692.91;10410837;28;831;-70
2023/08/13 18:07:57;;;;;;;;;;;;;;;20.72;61.79;99697.34;10410527;28;941;-70
2023/08/13 18:12:53;;;;;;;;;;;;;;;20.72;61.68;99697.34;10411582;28;1893;-70
2023/08/13 18:17:49;;;;;;;;;;;;;;;20.70;61.85;99700.09;10409568;28;875;-71
2023/08/13 18:22:44;;;;;;;;;;;;;;;20.71;61.83;99695.63;10410641;28;850;-70
2023/08/13 18:27:40;;;;;;;;;;;;;;;20.71;62.01;99703.59;10410705;28;870;-70
2023/08/13 18:32:36;;;;;;;;;;;;;;;20.70;61.94;99700.09;10409622;28;1893;-70
2023/08/13 18:37:32;;;;;;;;;;;;;;;20.70;62.03;99693.94;10408694;28;905;-71
2023/08/13 18:42:28;;;;;;;;;;;;;;;20.69;62.00;99706.31;10409021;28;1459;-70
2023/08/13 18:47:24;;;;;;;;;;;;;;;20.69;61.97;99708.09;10409616;28;834;-71
2023/08/13 18:52:20;;;;;;;;;;;;;;;20.68;62.14;99720.50;10408749;28;1991;-71
2023/08/13 18:57:16;;;;;;;;;;;;;;;20.68;62.14;99715.22;10409356;28;845;-68
2023/08/13 19:02:12;;;;;;;;;;;;;;;20.71;62.01;99716.84;10408525;28;868;-71
2023/08/13 19:07:08;;;;;;;;;;;;;;;20.67;62.12;99718.81;10408248;28;953;-71
2023/08/13 19:12:04;;;;;;;;;;;;;;;20.68;62.29;99725.81;10407606;28;1953;-71
2023/08/13 19:17:00;;;;;;;;;;;;;;;20.68;62.32;99730.25;10409189;28;924;-71
2023/08/13 19:21:56;;;;;;;;;;;;;;;20.67;62.17;99728.53;10408559;28;817;-71
2023/08/13 19:26:52;;;;;;;;;;;;;;;20.66;62.41;99732.13;10408516;28;901;-71
2023/08/13 19:31:48;;;;;;;;;;;;;;;20.66;62.43;99726.81;10408223;28;1897;-71
2023/08/13 19:36:44;;;;;;;;;;;;;;;20.66;62.43;99729.47;10407647;28;957;-71
2023/08/13 19:41:40;;;;;;;;;;;;;;;20.64;62.34;99726.91;10407844;28;1197;-71
2023/08/13 19:46:36;;;;;;;;;;;;;;;20.65;62.46;99730.44;10407476;28;867;-71
2023/08/13 19:51:32;;;;;;;;;;;;;;;20.64;62.25;99724.25;10407315;28;1973;-68
2023/08/13 19:56:27;;;;;;;;;;;;;;;20.65;62.21;99731.28;10407285;28;933;-73
2023/08/13 20:01:23;;;;;;;;;;;;;;;20.65;62.26;99736.56;10407712;28;889;-75
2023/08/13 20:06:19;;;;;;;;;;;;;;;20.65;62.15;99744.50;10407804;28;847;-75
2023/08/13 20:11:15;;;;;;;;;;;;;;;20.66;62.15;99745.38;10406914;28;1905;-74
2023/08/13 20:16:12;;;;;;;;;;;;;;;20.67;62.03;99741.75;10406864;28;937;-74
2023/08/13 20:21:08;;;;;;;;;;;;;;;20.67;61.98;99739.13;10409440;28;946;-74
2023/08/13 20:26:04;;;;;;;;;;;;;;;20.66;62.07;99737.41;10414559;28;798;-75
2023/08/13 20:31:00;;;;;;;;;;;;;;;20.67;61.99;99745.28;10415515;28;1956;-75
2023/08/13 20:35:55;;;;;;;;;;;;;;;20.66;61.97;99738.25;10414208;28;941;-74
2023/08/13 20:40:56;;;;;;;;;;;;;;;20.66;62.14;99740.91;10414112;28;1284;-75
2023/08/13 20:45:52;;;;;;;;;;;;;;;20.67;62.08;99732.06;10414613;28;802;-75
2023/08/13 20:50:48;;;;;;;;;;;;;;;20.67;62.05;99732.06;10413623;28;1913;-75
2023/08/13 20:55:44;;;;;;;;;;;;;;;20.66;62.00;99729.47;10413479;28;846;-75
2023/08/13 21:00:40;;;;;;;;;;;;;;;20.66;61.88;99726.81;10413278;28;802;-75
2023/08/13 21:05:36;;;;;;;;;;;;;;;20.67;62.01;99733.81;10413038;28;852;-75
2023/08/13 21:10:32;;;;;;;;;;;;;;;20.66;61.83;99727.66;10413423;28;1979;-75
2023/08/13 21:15:28;;;;;;;;;;;;;;;20.66;61.81;99735.63;10411433;28;1070;-75
2023/08/13 21:20:24;;;;;;;;;;;;;;;20.67;61.97;99742.66;10413191;28;803;-75
2023/08/13 21:25:19;;;;;;;;;;;;;;;20.66;61.84;99730.31;10413081;28;829;-75
2023/08/13 21:30:15;;;;;;;;;;;;;;;20.68;61.78;99735.53;10412044;28;1964;-75
2023/08/13 21:35:11;;;;;;;;;;;;;;;20.67;61.81;99731.16;10412046;28;852;-75
2023/08/13 21:40:07;;;;;;;;;;;;;;;20.66;61.80;99735.63;10411596;28;1299;-76
2023/08/13 21:45:03;;;;;;;;;;;;;;;20.67;61.84;99736.47;10410783;28;1084;-75
2023/08/13 21:49:59;;;;;;;;;;;;;;;20.66;61.88;99748.88;10412052;28;1910;-75
2023/08/13 21:54:55;;;;;;;;;;;;;;;20.67;61.63;99752.34;10411124;28;864;-75
2023/08/13 21:59:51;;;;;;;;;;;;;;;20.66;61.65;99751.50;10411464;28;886;-75
2023/08/13 22:04:48;;;;;;;;;;;;;;;20.66;61.68;99756.81;10411330;28;868;-75
2023/08/13 22:09:43;;;;;;;;;;;;;;;20.65;61.77;99757.75;10410427;28;1952;-75
2023/08/13 22:14:39;;;;;;;;;;;;;;;20.66;61.60;99746.22;10410932;28;965;-75
2023/08/13 22:19:35;;;;;;;;;;;;;;;20.65;61.75;99747.16;10410122;28;814;-75
2023/08/13 22:24:31;;;;;;;;;;;;;;;20.66;61.55;99753.31;10409965;28;803;-75
2023/08/13 22:29:27;;;;;;;;;;;;;;;20.67;61.76;99750.59;10410245;28;1961;-75
2023/08/13 22:34:23;;;;;;;;;;;;;;;20.65;61.57;99747.16;10409701;28;905;-75
2023/08/13 22:39:19;;;;;;;;;;;;;;;20.65;61.60;99755.09;10410186;28;1324;-75
2023/08/13 22:44:15;;;;;;;;;;;;;;;20.64;61.55;99756.03;10409039;28;886;-75
2023/08/13 22:49:10;;;;;;;;;;;;;;;20.66;61.53;99764.75;10409637;28;1905;-75
2023/08/13 22:54:06;;;;;;;;;;;;;;;20.66;61.78;99758.59;10408870;28;773;-75
2023/08/13 22:59:03;;;;;;;;;;;;;;;20.66;61.50;99758.59;10409258;28;826;-75
2023/08/13 23:03:59;;;;;;;;;;;;;;;20.65;61.72;99752.47;10409022;28;986;-75
2023/08/13 23:08:55;;;;;;;;;;;;;;;20.65;61.71;99755.09;10408364;28;1890;-75
2023/08/13 23:13:51;;;;;;;;;;;;;;;20.64;61.73;99749.88;10407639;28;827;-75
2023/08/13 23:18:46;;;;;;;;;;;;;;;20.64;61.71;99748.09;10408699;28;858;-75
2023/08/13 23:23:42;;;;;;;;;;;;;;;20.65;61.65;99748.97;10408158;28;937;-75
2023/08/13 23:28:38;;;;;;;;;;;;;;;20.64;61.48;99753.38;10407829;28;784;-75
2023/08/13 23:33:34;;;;;;;;;;;;;;;20.65;61.65;99743.66;10408241;28;1918;-74
2023/08/13 23:38:30;;;;;;;;;;;;;;;20.64;61.68;99748.09;10407969;28;1282;-75
2023/08/13 23:43:26;;;;;;;;;;;;;;;20.64;61.61;99748.09;10408096;28;900;-75
2023/08/13 23:48:22;;;;;;;;;;;;;;;20.63;61.66;99749.03;10407427;28;846;-75
2023/08/13 23:53:18;;;;;;;;;;;;;;;20.64;61.58;99752.53;10406815;28;1965;-75
2023/08/13 23:58:13;;;;;;;;;;;;;;;20.64;61.55;99750.72;10414472;28;798;-76
